sensor_id;sensor_type;location;lat;lon;timestamp;temperature;humidity
2729;DHT22;1372;47.956;7.830;2023-02-08T00:01:39;-2.00;99.90
2729;DHT22;1372;47.956;7.830;2023-02-08T00:04:08;-1.90;99.90
2729;DHT22;1372;47.956;7.830;2023-02-08T00:06:37;-2.00;99.90
2729;DHT22;1372;47.956;7.830;2023-02-08T00:09:07;-2.30;99.90
2729;DHT22;1372;47.956;7.830;2023-02-08T00:11:36;-2.00;99.90
2729;DHT22;1372;47.956;7.830;2023-02-08T00:14:06;-2.20;99.90
2729;DHT22;1372;47.956;7.830;2023-02-08T00:16:37;-2.30;99.90
2729;DHT22;1372;47.956;7.830;2023-02-08T00:19:06;-2.30;99.90
2729;DHT22;1372;47.956;7.830;2023-02-08T00:21:35;-2.20;99.90
2729;DHT22;1372;47.956;7.830;2023-02-08T00:24:04;-2.30;99.90
2729;DHT22;1372;47.956;7.830;2023-02-08T00:26:33;-2.40;99.90
2729;DHT22;1372;47.956;7.830;2023-02-08T00:29:01;-2.10;99.90
2729;DHT22;1372;47.956;7.830;2023-02-08T00:31:31;-2.20;99.90
2729;DHT22;1372;47.956;7.830;2023-02-08T00:34:00;-2.30;99.90
2729;DHT22;1372;47.956;7.830;2023-02-08T00:36:29;-2.40;99.90
2729;DHT22;1372;47.956;7.830;2023-02-08T00:38:57;-2.40;99.90
2729;DHT22;1372;47.956;7.830;2023-02-08T00:41:28;-2.40;99.90
2729;DHT22;1372;47.956;7.830;2023-02-08T00:43:56;-2.50;99.90
2729;DHT22;1372;47.956;7.830;2023-02-08T00:46:25;-2.30;99.90
2729;DHT22;1372;47.956;7.830;2023-02-08T00:48:55;-2.40;99.90
2729;DHT22;1372;47.956;7.830;2023-02-08T00:51:23;-2.50;99.90
2729;DHT22;1372;47.956;7.830;2023-02-08T00:53:54;-2.40;99.90
2729;DHT22;1372;47.956;7.830;2023-02-08T00:56:23;-2.30;99.90
2729;DHT22;1372;47.956;7.830;2023-02-08T00:58:51;-2.50;99.90
2729;DHT22;1372;47.956;7.830;2023-02-08T01:01:20;-2.30;99.90
2729;DHT22;1372;47.956;7.830;2023-02-08T01:03:49;-2.30;99.90
2729;DHT22;1372;47.956;7.830;2023-02-08T01:06:19;-2.40;99.90
2729;DHT22;1372;47.956;7.830;2023-02-08T01:08:48;-2.20;99.90
2729;DHT22;1372;47.956;7.830;2023-02-08T01:11:19;-2.30;99.90
2729;DHT22;1372;47.956;7.830;2023-02-08T01:13:51;-2.30;99.90
2729;DHT22;1372;47.956;7.830;2023-02-08T01:16:23;-2.20;99.90
2729;DHT22;1372;47.956;7.830;2023-02-08T01:18:55;-2.20;99.90
2729;DHT22;1372;47.956;7.830;2023-02-08T01:21:28;-2.40;99.90
2729;DHT22;1372;47.956;7.830;2023-02-08T01:23:58;-2.50;99.90
2729;DHT22;1372;47.956;7.830;2023-02-08T01:26:27;-2.50;99.90
2729;DHT22;1372;47.956;7.830;2023-02-08T01:28:59;-2.50;99.90
2729;DHT22;1372;47.956;7.830;2023-02-08T01:31:30;-2.40;99.90
2729;DHT22;1372;47.956;7.830;2023-02-08T01:34:01;-2.40;99.90
2729;DHT22;1372;47.956;7.830;2023-02-08T01:36:32;-2.50;99.90
2729;DHT22;1372;47.956;7.830;2023-02-08T01:39:03;-2.40;99.90
2729;DHT22;1372;47.956;7.830;2023-02-08T01:41:35;-2.40;99.90
2729;DHT22;1372;47.956;7.830;2023-02-08T01:44:08;-2.30;99.90
2729;DHT22;1372;47.956;7.830;2023-02-08T01:47:14;-2.40;99.90
2729;DHT22;1372;47.956;7.830;2023-02-08T01:49:42;-2.40;99.90
2729;DHT22;1372;47.956;7.830;2023-02-08T01:52:15;-2.50;99.90
2729;DHT22;1372;47.956;7.830;2023-02-08T01:54:50;-2.50;99.90
2729;DHT22;1372;47.956;7.830;2023-02-08T01:57:24;-2.40;99.90
2729;DHT22;1372;47.956;7.830;2023-02-08T01:59:55;-2.30;99.90
2729;DHT22;1372;47.956;7.830;2023-02-08T02:02:26;-2.20;99.90
2729;DHT22;1372;47.956;7.830;2023-02-08T02:04:55;-2.20;99.90
2729;DHT22;1372;47.956;7.830;2023-02-08T02:07:27;-2.30;99.90
2729;DHT22;1372;47.956;7.830;2023-02-08T02:10:02;-2.40;99.90
2729;DHT22;1372;47.956;7.830;2023-02-08T02:12:36;-2.20;99.90
2729;DHT22;1372;47.956;7.830;2023-02-08T02:15:06;-2.20;99.90
2729;DHT22;1372;47.956;7.830;2023-02-08T02:17:36;-2.30;99.90
2729;DHT22;1372;47.956;7.830;2023-02-08T02:20:09;-2.50;99.90
2729;DHT22;1372;47.956;7.830;2023-02-08T02:26:21;-2.30;99.90
2729;DHT22;1372;47.956;7.830;2023-02-08T02:32:35;-2.60;99.90
2729;DHT22;1372;47.956;7.830;2023-02-08T02:35:17;-2.40;99.90
2729;DHT22;1372;47.956;7.830;2023-02-08T02:37:57;-2.50;99.90
2729;DHT22;1372;47.956;7.830;2023-02-08T02:40:38;-2.70;99.90
2729;DHT22;1372;47.956;7.830;2023-02-08T02:43:17;-2.90;99.90
2729;DHT22;1372;47.956;7.830;2023-02-08T02:46:19;-2.90;99.90
2729;DHT22;1372;47.956;7.830;2023-02-08T02:48:58;-2.90;99.90
2729;DHT22;1372;47.956;7.830;2023-02-08T02:51:36;-2.90;99.90
2729;DHT22;1372;47.956;7.830;2023-02-08T02:54:13;-2.90;99.90
2729;DHT22;1372;47.956;7.830;2023-02-08T02:56:47;-3.00;99.90
2729;DHT22;1372;47.956;7.830;2023-02-08T02:59:18;-3.00;99.90
2729;DHT22;1372;47.956;7.830;2023-02-08T03:01:47;-3.20;99.90
2729;DHT22;1372;47.956;7.830;2023-02-08T03:04:48;-3.10;99.90
2729;DHT22;1372;47.956;7.830;2023-02-08T03:10:49;-3.40;99.90
2729;DHT22;1372;47.956;7.830;2023-02-08T03:13:26;-3.20;99.90
2729;DHT22;1372;47.956;7.830;2023-02-08T03:16:07;-3.20;99.90
2729;DHT22;1372;47.956;7.830;2023-02-08T03:18:52;-3.30;99.90
2729;DHT22;1372;47.956;7.830;2023-02-08T03:21:34;-3.40;99.90
2729;DHT22;1372;47.956;7.830;2023-02-08T03:24:24;-3.40;99.90
2729;DHT22;1372;47.956;7.830;2023-02-08T03:27:01;-3.50;99.90
2729;DHT22;1372;47.956;7.830;2023-02-08T03:29:41;-3.50;99.90
2729;DHT22;1372;47.956;7.830;2023-02-08T03:32:17;-3.60;99.90
2729;DHT22;1372;47.956;7.830;2023-02-08T03:34:52;-3.50;99.90
2729;DHT22;1372;47.956;7.830;2023-02-08T03:37:27;-3.50;99.90
2729;DHT22;1372;47.956;7.830;2023-02-08T03:40:05;-3.60;99.90
2729;DHT22;1372;47.956;7.830;2023-02-08T03:42:35;-3.50;99.90
2729;DHT22;1372;47.956;7.830;2023-02-08T03:45:11;-3.40;99.90
2729;DHT22;1372;47.956;7.830;2023-02-08T03:47:44;-3.50;99.90
2729;DHT22;1372;47.956;7.830;2023-02-08T03:50:15;-3.60;99.90
2729;DHT22;1372;47.956;7.830;2023-02-08T03:52:48;-3.50;99.90
2729;DHT22;1372;47.956;7.830;2023-02-08T03:55:20;-3.40;99.90
2729;DHT22;1372;47.956;7.830;2023-02-08T03:57:56;-3.40;99.90
2729;DHT22;1372;47.956;7.830;2023-02-08T04:00:27;-3.40;99.90
2729;DHT22;1372;47.956;7.830;2023-02-08T04:03:01;-3.40;99.90
2729;DHT22;1372;47.956;7.830;2023-02-08T04:05:35;-3.50;99.90
2729;DHT22;1372;47.956;7.830;2023-02-08T04:08:05;-3.30;99.90
2729;DHT22;1372;47.956;7.830;2023-02-08T04:10:34;-3.30;99.90
2729;DHT22;1372;47.956;7.830;2023-02-08T04:13:03;-3.60;99.90
2729;DHT22;1372;47.956;7.830;2023-02-08T04:15:32;-3.60;99.90
2729;DHT22;1372;47.956;7.830;2023-02-08T04:18:01;-3.60;99.90
2729;DHT22;1372;47.956;7.830;2023-02-08T04:20:29;-3.60;99.90
2729;DHT22;1372;47.956;7.830;2023-02-08T04:22:58;-3.80;99.90
2729;DHT22;1372;47.956;7.830;2023-02-08T04:25:29;-3.80;99.90
2729;DHT22;1372;47.956;7.830;2023-02-08T04:28:00;-3.70;99.90
2729;DHT22;1372;47.956;7.830;2023-02-08T04:30:29;-3.60;99.90
2729;DHT22;1372;47.956;7.830;2023-02-08T04:32:58;-3.60;99.90
2729;DHT22;1372;47.956;7.830;2023-02-08T04:35:27;-3.60;99.90
2729;DHT22;1372;47.956;7.830;2023-02-08T04:37:56;-3.70;99.90
2729;DHT22;1372;47.956;7.830;2023-02-08T04:40:24;-4.00;99.90
2729;DHT22;1372;47.956;7.830;2023-02-08T04:42:54;-3.90;99.90
2729;DHT22;1372;47.956;7.830;2023-02-08T04:45:23;-4.00;99.90
2729;DHT22;1372;47.956;7.830;2023-02-08T04:47:52;-3.90;99.90
2729;DHT22;1372;47.956;7.830;2023-02-08T04:50:21;-3.90;99.90
2729;DHT22;1372;47.956;7.830;2023-02-08T04:52:52;-3.90;99.90
2729;DHT22;1372;47.956;7.830;2023-02-08T04:55:21;-3.90;99.90
2729;DHT22;1372;47.956;7.830;2023-02-08T04:57:53;-3.90;99.90
2729;DHT22;1372;47.956;7.830;2023-02-08T05:00:35;-3.80;99.90
2729;DHT22;1372;47.956;7.830;2023-02-08T05:03:04;-3.90;99.90
2729;DHT22;1372;47.956;7.830;2023-02-08T05:05:32;-3.90;99.90
2729;DHT22;1372;47.956;7.830;2023-02-08T05:08:04;-3.90;99.90
2729;DHT22;1372;47.956;7.830;2023-02-08T05:10:32;-3.70;99.90
2729;DHT22;1372;47.956;7.830;2023-02-08T05:13:04;-3.70;99.90
2729;DHT22;1372;47.956;7.830;2023-02-08T05:15:33;-3.90;99.90
2729;DHT22;1372;47.956;7.830;2023-02-08T05:18:02;-3.80;99.90
2729;DHT22;1372;47.956;7.830;2023-02-08T05:20:31;-3.80;99.90
2729;DHT22;1372;47.956;7.830;2023-02-08T05:23:00;-3.80;99.90
2729;DHT22;1372;47.956;7.830;2023-02-08T05:25:29;-3.80;99.90
2729;DHT22;1372;47.956;7.830;2023-02-08T05:27:58;-3.60;99.90
2729;DHT22;1372;47.956;7.830;2023-02-08T05:30:28;-3.70;99.90
2729;DHT22;1372;47.956;7.830;2023-02-08T05:32:57;-3.80;99.90
2729;DHT22;1372;47.956;7.830;2023-02-08T05:35:26;-3.60;99.90
2729;DHT22;1372;47.956;7.830;2023-02-08T05:37:54;-3.60;99.90
2729;DHT22;1372;47.956;7.830;2023-02-08T05:40:23;-3.70;99.90
2729;DHT22;1372;47.956;7.830;2023-02-08T05:42:51;-3.80;99.90
2729;DHT22;1372;47.956;7.830;2023-02-08T05:45:20;-3.70;99.90
2729;DHT22;1372;47.956;7.830;2023-02-08T05:47:50;-3.80;99.90
2729;DHT22;1372;47.956;7.830;2023-02-08T05:50:19;-3.90;99.90
2729;DHT22;1372;47.956;7.830;2023-02-08T05:52:47;-3.70;99.90
2729;DHT22;1372;47.956;7.830;2023-02-08T05:55:16;-3.80;99.90
2729;DHT22;1372;47.956;7.830;2023-02-08T05:57:48;-3.70;99.90
2729;DHT22;1372;47.956;7.830;2023-02-08T06:00:17;-3.60;99.90
2729;DHT22;1372;47.956;7.830;2023-02-08T06:03:01;-3.80;99.90
2729;DHT22;1372;47.956;7.830;2023-02-08T06:05:30;-3.80;99.90
2729;DHT22;1372;47.956;7.830;2023-02-08T06:07:59;-3.90;99.90
2729;DHT22;1372;47.956;7.830;2023-02-08T06:10:27;-3.90;99.90
2729;DHT22;1372;47.956;7.830;2023-02-08T06:12:56;-4.00;99.90
2729;DHT22;1372;47.956;7.830;2023-02-08T06:15:25;-4.00;99.90
2729;DHT22;1372;47.956;7.830;2023-02-08T06:17:54;-4.00;99.90
2729;DHT22;1372;47.956;7.830;2023-02-08T06:20:26;-4.00;99.90
2729;DHT22;1372;47.956;7.830;2023-02-08T06:22:55;-4.00;99.90
2729;DHT22;1372;47.956;7.830;2023-02-08T06:25:24;-4.10;99.90
2729;DHT22;1372;47.956;7.830;2023-02-08T06:27:52;-4.20;99.90
2729;DHT22;1372;47.956;7.830;2023-02-08T06:30:23;-4.10;99.90
2729;DHT22;1372;47.956;7.830;2023-02-08T06:32:52;-4.20;99.90
2729;DHT22;1372;47.956;7.830;2023-02-08T06:35:22;-4.20;99.90
2729;DHT22;1372;47.956;7.830;2023-02-08T06:37:50;-4.10;99.90
2729;DHT22;1372;47.956;7.830;2023-02-08T06:40:19;-4.10;99.90
2729;DHT22;1372;47.956;7.830;2023-02-08T06:42:50;-4.20;99.90
2729;DHT22;1372;47.956;7.830;2023-02-08T06:45:19;-4.30;99.90
2729;DHT22;1372;47.956;7.830;2023-02-08T06:47:47;-4.30;99.90
2729;DHT22;1372;47.956;7.830;2023-02-08T06:50:16;-4.20;99.90
2729;DHT22;1372;47.956;7.830;2023-02-08T06:52:46;-4.10;99.90
2729;DHT22;1372;47.956;7.830;2023-02-08T06:55:15;-4.10;99.90
2729;DHT22;1372;47.956;7.830;2023-02-08T06:57:43;-4.00;99.90
2729;DHT22;1372;47.956;7.830;2023-02-08T07:00:13;-4.10;99.90
2729;DHT22;1372;47.956;7.830;2023-02-08T07:02:42;-4.00;99.90
2729;DHT22;1372;47.956;7.830;2023-02-08T07:05:13;-4.00;99.90
2729;DHT22;1372;47.956;7.830;2023-02-08T07:07:45;-4.20;99.90
2729;DHT22;1372;47.956;7.830;2023-02-08T07:10:15;-4.10;99.90
2729;DHT22;1372;47.956;7.830;2023-02-08T07:12:44;-4.10;99.90
2729;DHT22;1372;47.956;7.830;2023-02-08T07:15:12;-4.10;99.90
2729;DHT22;1372;47.956;7.830;2023-02-08T07:17:41;-4.00;99.90
2729;DHT22;1372;47.956;7.830;2023-02-08T07:20:10;-4.10;99.90
2729;DHT22;1372;47.956;7.830;2023-02-08T07:22:40;-4.20;99.90
2729;DHT22;1372;47.956;7.830;2023-02-08T07:25:10;-4.10;99.90
2729;DHT22;1372;47.956;7.830;2023-02-08T07:27:41;-4.00;99.90
2729;DHT22;1372;47.956;7.830;2023-02-08T07:30:10;-4.00;99.90
2729;DHT22;1372;47.956;7.830;2023-02-08T07:32:39;-4.00;99.90
2729;DHT22;1372;47.956;7.830;2023-02-08T07:35:07;-4.00;99.90
2729;DHT22;1372;47.956;7.830;2023-02-08T07:37:38;-4.10;99.90
2729;DHT22;1372;47.956;7.830;2023-02-08T07:40:11;-4.00;99.90
2729;DHT22;1372;47.956;7.830;2023-02-08T07:42:40;-3.90;99.90
2729;DHT22;1372;47.956;7.830;2023-02-08T07:45:10;-4.00;99.90
2729;DHT22;1372;47.956;7.830;2023-02-08T07:47:38;-4.00;99.90
2729;DHT22;1372;47.956;7.830;2023-02-08T07:50:07;-4.00;99.90
2729;DHT22;1372;47.956;7.830;2023-02-08T07:52:36;-3.90;99.90
2729;DHT22;1372;47.956;7.830;2023-02-08T07:55:05;-4.00;99.90
2729;DHT22;1372;47.956;7.830;2023-02-08T07:57:37;-4.00;99.90
2729;DHT22;1372;47.956;7.830;2023-02-08T08:00:07;-3.90;99.90
2729;DHT22;1372;47.956;7.830;2023-02-08T08:02:36;-3.80;99.90
2729;DHT22;1372;47.956;7.830;2023-02-08T08:05:06;-3.80;99.90
2729;DHT22;1372;47.956;7.830;2023-02-08T08:07:35;-3.60;99.90
2729;DHT22;1372;47.956;7.830;2023-02-08T08:10:07;-3.50;99.90
2729;DHT22;1372;47.956;7.830;2023-02-08T08:12:37;-3.30;99.90
2729;DHT22;1372;47.956;7.830;2023-02-08T08:15:06;-3.30;99.90
2729;DHT22;1372;47.956;7.830;2023-02-08T08:17:35;-3.40;99.90
2729;DHT22;1372;47.956;7.830;2023-02-08T08:20:06;-3.30;99.90
2729;DHT22;1372;47.956;7.830;2023-02-08T08:22:35;-3.20;99.90
2729;DHT22;1372;47.956;7.830;2023-02-08T08:25:05;-3.10;99.90
2729;DHT22;1372;47.956;7.830;2023-02-08T08:27:41;-3.00;99.90
2729;DHT22;1372;47.956;7.830;2023-02-08T08:30:12;-2.80;99.90
2729;DHT22;1372;47.956;7.830;2023-02-08T08:32:42;-2.70;99.90
2729;DHT22;1372;47.956;7.830;2023-02-08T08:35:17;-2.70;99.90
2729;DHT22;1372;47.956;7.830;2023-02-08T08:37:55;-2.70;99.90
2729;DHT22;1372;47.956;7.830;2023-02-08T08:44:01;-2.60;99.90
2729;DHT22;1372;47.956;7.830;2023-02-08T08:46:32;-2.50;99.90
2729;DHT22;1372;47.956;7.830;2023-02-08T08:49:01;-2.40;99.90
2729;DHT22;1372;47.956;7.830;2023-02-08T08:51:30;-2.30;99.90
2729;DHT22;1372;47.956;7.830;2023-02-08T08:54:08;-2.30;99.90
2729;DHT22;1372;47.956;7.830;2023-02-08T08:56:37;-2.10;99.90
2729;DHT22;1372;47.956;7.830;2023-02-08T08:59:07;-2.00;99.90
2729;DHT22;1372;47.956;7.830;2023-02-08T09:01:35;-2.00;99.90
2729;DHT22;1372;47.956;7.830;2023-02-08T09:04:08;-1.90;99.90
2729;DHT22;1372;47.956;7.830;2023-02-08T09:06:38;-1.80;99.90
2729;DHT22;1372;47.956;7.830;2023-02-08T09:09:08;-1.80;99.90
2729;DHT22;1372;47.956;7.830;2023-02-08T09:11:37;-1.60;99.90
2729;DHT22;1372;47.956;7.830;2023-02-08T09:14:08;-1.70;99.90
2729;DHT22;1372;47.956;7.830;2023-02-08T09:16:40;-1.60;99.90
2729;DHT22;1372;47.956;7.830;2023-02-08T09:19:14;-1.50;99.90
2729;DHT22;1372;47.956;7.830;2023-02-08T09:21:45;-1.50;99.90
2729;DHT22;1372;47.956;7.830;2023-02-08T09:24:15;-1.40;99.90
2729;DHT22;1372;47.956;7.830;2023-02-08T09:26:46;-1.40;99.90
2729;DHT22;1372;47.956;7.830;2023-02-08T09:29:16;-1.30;99.90
2729;DHT22;1372;47.956;7.830;2023-02-08T09:31:48;-1.20;99.90
2729;DHT22;1372;47.956;7.830;2023-02-08T09:34:27;-1.10;99.90
2729;DHT22;1372;47.956;7.830;2023-02-08T09:36:56;-1.00;99.90
2729;DHT22;1372;47.956;7.830;2023-02-08T09:39:27;-0.90;99.90
2729;DHT22;1372;47.956;7.830;2023-02-08T09:42:31;-0.70;99.90
2729;DHT22;1372;47.956;7.830;2023-02-08T09:45:25;-0.60;99.90
2729;DHT22;1372;47.956;7.830;2023-02-08T09:48:12;-0.50;99.90
2729;DHT22;1372;47.956;7.830;2023-02-08T09:50:52;-0.40;99.90
2729;DHT22;1372;47.956;7.830;2023-02-08T09:53:44;-0.50;99.90
2729;DHT22;1372;47.956;7.830;2023-02-08T09:56:35;-0.50;99.90
2729;DHT22;1372;47.956;7.830;2023-02-08T09:59:22;-0.40;99.90
2729;DHT22;1372;47.956;7.830;2023-02-08T10:02:18;-0.30;99.90
2729;DHT22;1372;47.956;7.830;2023-02-08T10:04:57;-0.30;99.90
2729;DHT22;1372;47.956;7.830;2023-02-08T10:07:30;-0.40;99.90
2729;DHT22;1372;47.956;7.830;2023-02-08T10:10:02;-0.40;99.90
2729;DHT22;1372;47.956;7.830;2023-02-08T10:12:39;-0.30;99.90
2729;DHT22;1372;47.956;7.830;2023-02-08T10:15:28;-0.30;99.90
2729;DHT22;1372;47.956;7.830;2023-02-08T10:18:14;-0.20;99.90
2729;DHT22;1372;47.956;7.830;2023-02-08T10:21:12;-0.10;99.90
2729;DHT22;1372;47.956;7.830;2023-02-08T10:24:13;-0.10;99.90
2729;DHT22;1372;47.956;7.830;2023-02-08T10:27:06;0.00;99.90
2729;DHT22;1372;47.956;7.830;2023-02-08T10:33:00;0.00;99.90
2729;DHT22;1372;47.956;7.830;2023-02-08T10:35:36;0.10;99.90
2729;DHT22;1372;47.956;7.830;2023-02-08T10:38:24;0.20;99.90
2729;DHT22;1372;47.956;7.830;2023-02-08T10:41:17;0.30;99.90
2729;DHT22;1372;47.956;7.830;2023-02-08T10:43:52;0.40;99.90
2729;DHT22;1372;47.956;7.830;2023-02-08T10:46:26;0.50;99.90
2729;DHT22;1372;47.956;7.830;2023-02-08T10:49:04;0.60;99.90
2729;DHT22;1372;47.956;7.830;2023-02-08T10:51:36;0.60;99.90
2729;DHT22;1372;47.956;7.830;2023-02-08T10:54:05;0.70;99.90
2729;DHT22;1372;47.956;7.830;2023-02-08T10:56:38;0.70;99.90
2729;DHT22;1372;47.956;7.830;2023-02-08T10:59:15;0.80;99.90
2729;DHT22;1372;47.956;7.830;2023-02-08T11:01:47;0.80;99.90
2729;DHT22;1372;47.956;7.830;2023-02-08T11:04:17;0.80;99.90
2729;DHT22;1372;47.956;7.830;2023-02-08T11:06:48;0.90;99.90
2729;DHT22;1372;47.956;7.830;2023-02-08T11:09:22;1.00;99.90
2729;DHT22;1372;47.956;7.830;2023-02-08T11:11:54;1.10;99.90
2729;DHT22;1372;47.956;7.830;2023-02-08T11:14:26;1.10;99.90
2729;DHT22;1372;47.956;7.830;2023-02-08T11:17:25;1.00;99.90
2729;DHT22;1372;47.956;7.830;2023-02-08T11:19:56;1.00;99.90
2729;DHT22;1372;47.956;7.830;2023-02-08T11:22:28;1.10;99.90
2729;DHT22;1372;47.956;7.830;2023-02-08T11:25:02;1.30;99.90
2729;DHT22;1372;47.956;7.830;2023-02-08T11:27:34;1.30;99.90
2729;DHT22;1372;47.956;7.830;2023-02-08T11:30:20;1.50;99.90
2729;DHT22;1372;47.956;7.830;2023-02-08T11:33:15;1.50;99.90
2729;DHT22;1372;47.956;7.830;2023-02-08T11:35:54;1.60;99.90
2729;DHT22;1372;47.956;7.830;2023-02-08T11:38:30;1.60;99.90
2729;DHT22;1372;47.956;7.830;2023-02-08T11:41:03;1.60;99.90
2729;DHT22;1372;47.956;7.830;2023-02-08T11:43:34;1.70;99.90
2729;DHT22;1372;47.956;7.830;2023-02-08T11:46:04;1.70;99.90
2729;DHT22;1372;47.956;7.830;2023-02-08T11:48:42;1.80;99.90
2729;DHT22;1372;47.956;7.830;2023-02-08T11:51:22;1.70;99.90
2729;DHT22;1372;47.956;7.830;2023-02-08T11:53:57;1.80;99.90
2729;DHT22;1372;47.956;7.830;2023-02-08T11:56:28;1.90;99.90
2729;DHT22;1372;47.956;7.830;2023-02-08T11:59:03;1.90;99.90
2729;DHT22;1372;47.956;7.830;2023-02-08T12:01:39;2.00;99.90
2729;DHT22;1372;47.956;7.830;2023-02-08T12:04:12;2.10;99.90
2729;DHT22;1372;47.956;7.830;2023-02-08T12:07:09;2.10;99.90
2729;DHT22;1372;47.956;7.830;2023-02-08T12:10:11;2.10;99.90
2729;DHT22;1372;47.956;7.830;2023-02-08T12:13:32;2.10;99.90
2729;DHT22;1372;47.956;7.830;2023-02-08T12:16:21;2.10;99.90
2729;DHT22;1372;47.956;7.830;2023-02-08T12:19:20;2.10;99.90
2729;DHT22;1372;47.956;7.830;2023-02-08T12:22:08;2.30;99.90
2729;DHT22;1372;47.956;7.830;2023-02-08T12:24:46;2.50;99.90
2729;DHT22;1372;47.956;7.830;2023-02-08T12:27:31;2.60;99.90
2729;DHT22;1372;47.956;7.830;2023-02-08T12:30:10;2.60;99.90
2729;DHT22;1372;47.956;7.830;2023-02-08T12:33:00;2.60;99.90
2729;DHT22;1372;47.956;7.830;2023-02-08T12:35:49;2.50;99.90
2729;DHT22;1372;47.956;7.830;2023-02-08T12:38:53;2.60;99.90
2729;DHT22;1372;47.956;7.830;2023-02-08T12:42:30;2.60;99.90
2729;DHT22;1372;47.956;7.830;2023-02-08T12:45:17;2.90;99.90
2729;DHT22;1372;47.956;7.830;2023-02-08T12:48:21;2.90;99.90
2729;DHT22;1372;47.956;7.830;2023-02-08T12:51:01;2.90;99.90
2729;DHT22;1372;47.956;7.830;2023-02-08T12:53:41;2.80;99.90
2729;DHT22;1372;47.956;7.830;2023-02-08T12:56:15;2.80;99.90
2729;DHT22;1372;47.956;7.830;2023-02-08T12:58:50;2.90;99.90
2729;DHT22;1372;47.956;7.830;2023-02-08T13:01:30;2.90;99.90
2729;DHT22;1372;47.956;7.830;2023-02-08T13:04:06;3.00;99.90
2729;DHT22;1372;47.956;7.830;2023-02-08T13:06:39;3.00;99.90
2729;DHT22;1372;47.956;7.830;2023-02-08T13:09:15;3.20;99.90
2729;DHT22;1372;47.956;7.830;2023-02-08T13:11:51;3.20;99.90
2729;DHT22;1372;47.956;7.830;2023-02-08T13:14:27;3.30;99.90
2729;DHT22;1372;47.956;7.830;2023-02-08T13:17:11;3.40;99.90
2729;DHT22;1372;47.956;7.830;2023-02-08T13:19:50;3.40;99.90
2729;DHT22;1372;47.956;7.830;2023-02-08T13:22:30;3.50;99.90
2729;DHT22;1372;47.956;7.830;2023-02-08T13:25:12;3.50;99.90
2729;DHT22;1372;47.956;7.830;2023-02-08T13:27:43;3.50;99.90
2729;DHT22;1372;47.956;7.830;2023-02-08T13:30:17;3.60;99.90
2729;DHT22;1372;47.956;7.830;2023-02-08T13:32:50;3.60;99.90
2729;DHT22;1372;47.956;7.830;2023-02-08T13:35:24;3.50;99.90
2729;DHT22;1372;47.956;7.830;2023-02-08T13:37:58;3.50;99.90
2729;DHT22;1372;47.956;7.830;2023-02-08T13:40:30;3.40;99.90
2729;DHT22;1372;47.956;7.830;2023-02-08T13:43:02;3.50;99.90
2729;DHT22;1372;47.956;7.830;2023-02-08T13:45:36;3.60;99.90
2729;DHT22;1372;47.956;7.830;2023-02-08T13:48:12;3.60;99.90
2729;DHT22;1372;47.956;7.830;2023-02-08T13:50:46;3.60;99.90
2729;DHT22;1372;47.956;7.830;2023-02-08T13:53:17;3.50;99.90
2729;DHT22;1372;47.956;7.830;2023-02-08T13:55:53;3.60;99.90
2729;DHT22;1372;47.956;7.830;2023-02-08T13:58:33;3.60;99.90
2729;DHT22;1372;47.956;7.830;2023-02-08T14:01:17;3.60;99.90
2729;DHT22;1372;47.956;7.830;2023-02-08T14:04:16;3.60;99.90
2729;DHT22;1372;47.956;7.830;2023-02-08T14:07:15;3.70;99.90
2729;DHT22;1372;47.956;7.830;2023-02-08T14:10:03;3.70;99.90
2729;DHT22;1372;47.956;7.830;2023-02-08T14:12:40;3.70;99.90
2729;DHT22;1372;47.956;7.830;2023-02-08T14:15:32;3.80;99.90
2729;DHT22;1372;47.956;7.830;2023-02-08T14:18:22;4.00;99.90
2729;DHT22;1372;47.956;7.830;2023-02-08T14:21:02;4.20;99.90
2729;DHT22;1372;47.956;7.830;2023-02-08T14:23:35;4.30;99.90
2729;DHT22;1372;47.956;7.830;2023-02-08T14:26:09;4.20;99.90
2729;DHT22;1372;47.956;7.830;2023-02-08T14:28:53;4.20;99.90
2729;DHT22;1372;47.956;7.830;2023-02-08T14:31:38;4.20;99.90
2729;DHT22;1372;47.956;7.830;2023-02-08T14:34:27;4.30;99.90
2729;DHT22;1372;47.956;7.830;2023-02-08T14:37:04;4.30;99.90
2729;DHT22;1372;47.956;7.830;2023-02-08T14:40:30;4.40;99.90
2729;DHT22;1372;47.956;7.830;2023-02-08T14:43:02;4.30;99.90
2729;DHT22;1372;47.956;7.830;2023-02-08T14:45:35;4.40;99.90
2729;DHT22;1372;47.956;7.830;2023-02-08T14:48:16;4.30;99.90
2729;DHT22;1372;47.956;7.830;2023-02-08T14:50:58;4.30;99.90
2729;DHT22;1372;47.956;7.830;2023-02-08T14:53:42;4.20;99.90
2729;DHT22;1372;47.956;7.830;2023-02-08T14:56:19;4.30;99.90
2729;DHT22;1372;47.956;7.830;2023-02-08T14:58:50;4.20;99.90
2729;DHT22;1372;47.956;7.830;2023-02-08T15:01:30;4.20;99.90
2729;DHT22;1372;47.956;7.830;2023-02-08T15:04:10;4.30;99.90
2729;DHT22;1372;47.956;7.830;2023-02-08T15:07:23;4.40;99.90
2729;DHT22;1372;47.956;7.830;2023-02-08T15:10:02;4.50;99.90
2729;DHT22;1372;47.956;7.830;2023-02-08T15:12:34;4.40;99.90
2729;DHT22;1372;47.956;7.830;2023-02-08T15:15:06;4.30;99.90
2729;DHT22;1372;47.956;7.830;2023-02-08T15:17:52;4.30;99.90
2729;DHT22;1372;47.956;7.830;2023-02-08T15:20:23;4.50;99.90
2729;DHT22;1372;47.956;7.830;2023-02-08T15:22:59;4.70;99.90
2729;DHT22;1372;47.956;7.830;2023-02-08T15:25:30;4.90;99.90
2729;DHT22;1372;47.956;7.830;2023-02-08T15:28:01;4.90;99.90
2729;DHT22;1372;47.956;7.830;2023-02-08T15:30:33;4.90;99.90
2729;DHT22;1372;47.956;7.830;2023-02-08T15:33:07;4.80;99.90
2729;DHT22;1372;47.956;7.830;2023-02-08T15:35:37;4.90;99.90
2729;DHT22;1372;47.956;7.830;2023-02-08T15:38:14;4.90;99.90
2729;DHT22;1372;47.956;7.830;2023-02-08T15:40:59;4.80;99.90
2729;DHT22;1372;47.956;7.830;2023-02-08T15:43:29;4.40;99.90
2729;DHT22;1372;47.956;7.830;2023-02-08T15:46:01;4.30;99.90
2729;DHT22;1372;47.956;7.830;2023-02-08T15:48:32;4.10;99.90
2729;DHT22;1372;47.956;7.830;2023-02-08T15:51:01;4.00;99.90
2729;DHT22;1372;47.956;7.830;2023-02-08T15:53:35;3.80;99.90
2729;DHT22;1372;47.956;7.830;2023-02-08T15:56:05;3.60;99.90
2729;DHT22;1372;47.956;7.830;2023-02-08T15:58:36;3.30;99.90
2729;DHT22;1372;47.956;7.830;2023-02-08T16:01:07;3.20;99.90
2729;DHT22;1372;47.956;7.830;2023-02-08T16:03:36;3.10;99.90
2729;DHT22;1372;47.956;7.830;2023-02-08T16:06:06;2.90;99.90
2729;DHT22;1372;47.956;7.830;2023-02-08T16:08:41;2.70;99.90
2729;DHT22;1372;47.956;7.830;2023-02-08T16:11:12;2.50;99.90
2729;DHT22;1372;47.956;7.830;2023-02-08T16:13:47;2.10;99.90
2729;DHT22;1372;47.956;7.830;2023-02-08T16:16:22;1.80;99.90
2729;DHT22;1372;47.956;7.830;2023-02-08T16:18:56;1.70;99.90
2729;DHT22;1372;47.956;7.830;2023-02-08T16:21:30;1.60;99.90
2729;DHT22;1372;47.956;7.830;2023-02-08T16:24:16;1.50;99.90
2729;DHT22;1372;47.956;7.830;2023-02-08T16:26:55;1.30;99.90
2729;DHT22;1372;47.956;7.830;2023-02-08T16:29:28;1.20;99.90
2729;DHT22;1372;47.956;7.830;2023-02-08T16:32:01;1.10;99.90
2729;DHT22;1372;47.956;7.830;2023-02-08T16:34:37;1.00;99.90
2729;DHT22;1372;47.956;7.830;2023-02-08T16:37:21;1.20;99.90
2729;DHT22;1372;47.956;7.830;2023-02-08T16:39:55;1.20;99.90
2729;DHT22;1372;47.956;7.830;2023-02-08T16:42:30;1.00;99.90
2729;DHT22;1372;47.956;7.830;2023-02-08T16:45:14;0.80;99.90
2729;DHT22;1372;47.956;7.830;2023-02-08T16:47:50;0.80;99.90
2729;DHT22;1372;47.956;7.830;2023-02-08T16:50:22;0.60;99.90
2729;DHT22;1372;47.956;7.830;2023-02-08T16:52:54;0.40;99.90
2729;DHT22;1372;47.956;7.830;2023-02-08T16:55:26;0.30;99.90
2729;DHT22;1372;47.956;7.830;2023-02-08T16:57:57;0.30;99.90
2729;DHT22;1372;47.956;7.830;2023-02-08T17:00:28;0.50;99.90
2729;DHT22;1372;47.956;7.830;2023-02-08T17:02:58;0.40;99.90
2729;DHT22;1372;47.956;7.830;2023-02-08T17:05:30;0.40;99.90
2729;DHT22;1372;47.956;7.830;2023-02-08T17:08:03;0.40;99.90
2729;DHT22;1372;47.956;7.830;2023-02-08T17:10:37;0.30;99.90
2729;DHT22;1372;47.956;7.830;2023-02-08T17:13:07;0.20;99.90
2729;DHT22;1372;47.956;7.830;2023-02-08T17:15:48;0.10;99.90